createdAt,value
2022-10-10T00:00:26.479Z,12.37
2022-10-10T00:02:54.615Z,12.70
2022-10-10T00:05:22.689Z,12.33
2022-10-10T00:07:50.852Z,11.77
2022-10-10T00:10:19.237Z,12.10
2022-10-10T00:12:49.119Z,12.20
2022-10-10T00:15:17.706Z,12.03
2022-10-10T00:17:45.846Z,11.80
2022-10-10T00:20:14.247Z,11.23
2022-10-10T00:22:42.435Z,12.30
2022-10-10T00:25:11.012Z,11.53
2022-10-10T00:27:39.365Z,11.47
2022-10-10T00:30:10.329Z,11.40
2022-10-10T00:32:38.474Z,10.23
2022-10-10T00:35:07.281Z,10.97
2022-10-10T00:37:35.460Z,11.20
2022-10-10T00:40:03.975Z,11.33
2022-10-10T00:42:32.063Z,11.73
2022-10-10T00:45:24.616Z,10.60
2022-10-10T00:47:53.492Z,10.97
2022-10-10T00:50:21.566Z,11.20
2022-10-10T00:52:50.063Z,11.20
2022-10-10T00:55:18.490Z,11.60
2022-10-10T00:57:46.724Z,11.73
2022-10-10T01:00:15.300Z,10.97
2022-10-10T01:02:44.792Z,11.13
2022-10-10T01:05:12.926Z,11.27
2022-10-10T01:07:41.119Z,10.53
2022-10-10T01:10:12.131Z,10.93
2022-10-10T01:12:50.155Z,10.63
2022-10-10T01:15:21.938Z,11.70
2022-10-10T01:17:54.411Z,11.60
2022-10-10T01:20:51.272Z,10.90
2022-10-10T01:23:40.308Z,10.80
2022-10-10T01:26:19.161Z,11.20
2022-10-10T01:28:50.833Z,10.93
2022-10-10T01:31:22.596Z,11.00
2022-10-10T01:34:08.796Z,11.03
2022-10-10T01:36:39.942Z,10.93
2022-10-10T01:39:10.590Z,11.07
2022-10-10T01:41:40.378Z,11.60
2022-10-10T01:44:09.967Z,11.03
2022-10-10T01:46:38.063Z,11.37
2022-10-10T01:49:06.159Z,10.57
2022-10-10T01:51:44.716Z,11.30
2022-10-10T01:54:19.220Z,10.03
2022-10-10T01:56:49.581Z,10.80
2022-10-10T01:59:27.465Z,10.50
2022-10-10T02:01:56.654Z,10.30
2022-10-10T02:04:37.850Z,10.10
2022-10-10T02:07:08.597Z,9.63
2022-10-10T02:09:38.073Z,10.40
2022-10-10T02:12:06.329Z,10.10
2022-10-10T02:14:38.931Z,9.43
2022-10-10T02:17:07.121Z,9.63
2022-10-10T02:19:35.289Z,9.50
2022-10-10T02:22:03.430Z,9.23
2022-10-10T02:24:31.589Z,9.80
2022-10-10T02:27:02.646Z,9.20
2022-10-10T02:29:32.474Z,9.03
2022-10-10T02:32:04.955Z,9.80
2022-10-10T02:34:35.232Z,8.93
2022-10-10T02:37:04.840Z,8.80
2022-10-10T02:39:34.864Z,8.73
2022-10-10T02:42:03.552Z,8.77
2022-10-10T02:44:31.703Z,8.17
2022-10-10T02:47:00.139Z,8.83
2022-10-10T02:49:30.238Z,8.27
2022-10-10T02:51:58.395Z,8.83
2022-10-10T02:54:26.794Z,8.93
2022-10-10T02:56:54.952Z,8.57
2022-10-10T02:59:23.064Z,8.77
2022-10-10T03:01:51.199Z,8.27
2022-10-10T03:04:19.330Z,9.30
2022-10-10T03:06:48.977Z,8.97
2022-10-10T03:09:17.075Z,8.03
2022-10-10T03:11:45.381Z,8.63
2022-10-10T03:14:13.504Z,8.33
2022-10-10T03:16:41.729Z,8.27
2022-10-10T03:19:09.990Z,8.43
2022-10-10T03:21:38.155Z,8.90
2022-10-10T03:24:08.109Z,8.60
2022-10-10T03:26:36.266Z,8.53
2022-10-10T03:29:04.604Z,8.73
2022-10-10T03:31:32.772Z,8.60
2022-10-10T03:34:00.943Z,8.43
2022-10-10T03:36:30.871Z,7.87
2022-10-10T03:38:58.980Z,8.33
2022-10-10T03:41:28.542Z,7.50
2022-10-10T03:43:57.281Z,7.90
2022-10-10T03:46:25.505Z,7.77
2022-10-10T03:48:53.679Z,7.23
2022-10-10T03:51:21.925Z,7.43
2022-10-10T03:53:50.074Z,7.57
2022-10-10T03:56:18.301Z,6.73
2022-10-10T03:58:47.853Z,7.20
2022-10-10T04:01:16.114Z,7.43
2022-10-10T04:03:47.537Z,7.07
2022-10-10T04:06:18.201Z,7.10
2022-10-10T04:08:46.304Z,6.97
2022-10-10T04:11:14.708Z,6.43
2022-10-10T04:13:42.849Z,7.10
2022-10-10T04:16:12.337Z,6.50
2022-10-10T04:18:40.470Z,6.93
2022-10-10T04:21:08.578Z,6.20
2022-10-10T04:23:36.737Z,6.80
2022-10-10T04:26:04.813Z,6.70
2022-10-10T04:28:33.038Z,6.90
2022-10-10T04:31:01.165Z,6.73
2022-10-10T04:33:30.698Z,7.03
2022-10-10T04:35:58.891Z,7.30
2022-10-10T04:38:27.113Z,6.93
2022-10-10T04:40:55.418Z,5.90
2022-10-10T04:43:23.601Z,7.33
2022-10-10T04:45:51.738Z,6.90
2022-10-10T04:48:19.896Z,6.70
2022-10-10T04:50:53.860Z,6.13
2022-10-10T04:53:22.019Z,6.73
2022-10-10T04:55:50.143Z,6.30
2022-10-10T04:58:18.535Z,6.70
2022-10-10T05:00:46.821Z,6.20
2022-10-10T05:03:14.997Z,6.33
2022-10-10T05:05:43.159Z,5.87
2022-10-10T05:08:12.643Z,5.67
2022-10-10T05:10:40.816Z,6.03
2022-10-10T05:13:09.016Z,6.20
2022-10-10T05:15:37.145Z,5.50
2022-10-10T05:18:05.616Z,5.70
2022-10-10T05:20:33.823Z,5.63
2022-10-10T05:23:02.017Z,6.47
2022-10-10T05:25:31.502Z,6.27
2022-10-10T05:27:59.676Z,6.00
2022-10-10T05:30:27.803Z,5.70
2022-10-10T05:32:56.264Z,6.73
2022-10-10T05:35:24.418Z,6.13
2022-10-10T05:37:52.561Z,6.43
2022-10-10T05:40:20.682Z,6.60
2022-10-10T05:42:50.572Z,6.37
2022-10-10T05:45:19.019Z,6.47
2022-10-10T05:47:47.146Z,6.57
2022-10-10T05:50:24.145Z,5.57
2022-10-10T05:52:52.518Z,6.23
2022-10-10T05:55:20.997Z,5.80
2022-10-10T05:57:50.573Z,6.10
2022-10-10T06:00:18.859Z,5.77
2022-10-10T06:02:47.017Z,6.27
2022-10-10T06:05:15.202Z,6.03
2022-10-10T06:08:03.548Z,6.43
2022-10-10T06:10:31.506Z,6.13
2022-10-10T06:13:01.302Z,6.40
2022-10-10T06:15:29.456Z,5.17
2022-10-10T06:17:57.686Z,5.63
2022-10-10T06:20:25.789Z,5.47
2022-10-10T06:22:54.230Z,5.30
2022-10-10T06:25:39.530Z,4.73
2022-10-10T06:28:11.231Z,5.50
2022-10-10T06:30:41.869Z,5.23
2022-10-10T06:33:10.274Z,5.47
2022-10-10T06:35:42.186Z,4.70
2022-10-10T06:38:10.394Z,4.97
2022-10-10T06:40:38.487Z,5.10
2022-10-10T06:43:10.513Z,5.00
2022-10-10T06:45:40.095Z,4.70
2022-10-10T06:48:08.713Z,4.97
2022-10-10T06:50:36.896Z,4.67
2022-10-10T06:53:05.102Z,5.00
2022-10-10T06:55:33.320Z,13.20
2022-10-10T06:58:01.458Z,5.40
2022-10-10T07:00:29.597Z,4.93
2022-10-10T07:02:59.187Z,5.10
2022-10-10T07:05:27.235Z,4.53
2022-10-10T07:07:55.330Z,4.87
2022-10-10T07:10:23.572Z,4.37
2022-10-10T07:12:51.814Z,4.73
2022-10-10T07:15:19.964Z,4.60
2022-10-10T07:17:54.167Z,4.20
2022-10-10T07:20:23.952Z,4.63
2022-10-10T07:23:07.016Z,4.13
2022-10-10T07:25:35.151Z,4.40
2022-10-10T07:28:03.269Z,6.83
2022-10-10T07:30:31.503Z,5.33
2022-10-10T07:32:59.537Z,4.10
2022-10-10T07:35:29.198Z,4.80
2022-10-10T07:37:57.343Z,4.00
2022-10-10T07:40:25.442Z,3.77
2022-10-10T07:42:53.829Z,4.37
2022-10-10T07:45:22.188Z,4.37
2022-10-10T07:47:50.460Z,3.90
2022-10-10T07:50:18.887Z,3.90
2022-10-10T07:52:48.342Z,4.00
2022-10-10T07:55:16.405Z,3.83
2022-10-10T07:57:44.500Z,3.87
2022-10-10T08:00:13.712Z,3.90
2022-10-10T08:02:42.515Z,3.70
2022-10-10T08:05:12.273Z,3.93
2022-10-10T08:07:40.330Z,3.70
2022-10-10T08:10:11.028Z,4.20
2022-10-10T08:12:39.176Z,3.93
2022-10-10T08:15:08.165Z,3.40
2022-10-10T08:17:36.325Z,3.60
2022-10-10T08:20:04.439Z,3.97
2022-10-10T08:22:32.486Z,4.10
2022-10-10T08:25:00.728Z,4.33
2022-10-10T08:27:30.140Z,3.83
2022-10-10T08:29:58.181Z,3.93
2022-10-10T08:32:26.374Z,4.10
2022-10-10T08:34:54.435Z,3.50
2022-10-10T08:37:27.029Z,3.90
2022-10-10T08:39:57.767Z,3.63
2022-10-10T08:42:29.460Z,3.23
2022-10-10T08:45:00.537Z,3.60
2022-10-10T08:47:33.541Z,3.67
2022-10-10T08:50:02.956Z,3.97
2022-10-10T08:52:33.274Z,3.80
2022-10-10T08:55:02.407Z,3.67
2022-10-10T08:57:33.525Z,3.93
2022-10-10T09:00:03.344Z,3.50
2022-10-10T09:02:53.183Z,4.00
2022-10-10T09:05:29.120Z,3.77
2022-10-10T09:08:17.699Z,3.93
2022-10-10T09:10:50.371Z,3.97
2022-10-10T09:13:25.585Z,3.60
2022-10-10T09:15:56.813Z,4.17
2022-10-10T09:18:32.273Z,4.40
2022-10-10T09:21:03.325Z,4.00
2022-10-10T09:23:33.512Z,3.80
2022-10-10T09:26:05.215Z,3.97
2022-10-10T09:28:40.287Z,3.70
2022-10-10T09:31:10.040Z,4.40
2022-10-10T09:33:39.808Z,3.77
2022-10-10T09:36:10.964Z,3.73
2022-10-10T09:38:40.123Z,3.50
2022-10-10T09:41:12.965Z,3.70
2022-10-10T09:43:42.405Z,3.77
2022-10-10T09:46:10.845Z,3.93
2022-10-10T09:48:39.415Z,4.23
2022-10-10T09:51:09.768Z,3.97
2022-10-10T09:53:37.971Z,4.03
2022-10-10T09:56:06.784Z,4.07
2022-10-10T09:58:37.028Z,3.33
2022-10-10T10:01:18.818Z,3.10
2022-10-10T10:04:17.187Z,3.87
2022-10-10T10:06:53.805Z,3.80
2022-10-10T10:09:22.975Z,4.60
2022-10-10T10:11:56.004Z,3.70
2022-10-10T10:14:27.034Z,3.57
2022-10-10T10:16:57.522Z,3.73
2022-10-10T10:19:31.560Z,3.40
2022-10-10T10:21:59.604Z,4.17
2022-10-10T10:24:32.554Z,3.43
2022-10-10T10:27:09.785Z,3.50
2022-10-10T10:29:38.047Z,3.90
2022-10-10T10:32:12.542Z,3.13
2022-10-10T10:34:54.464Z,3.43
2022-10-10T10:37:23.360Z,3.67
2022-10-10T10:40:04.547Z,3.37
2022-10-10T10:42:41.123Z,3.90
2022-10-10T10:45:12.187Z,4.27
2022-10-10T10:47:45.395Z,4.00
2022-10-10T10:50:26.196Z,3.43
2022-10-10T10:52:58.778Z,3.93
2022-10-10T10:55:32.954Z,3.17
2022-10-10T11:01:27.965Z,3.10
2022-10-10T11:05:16.680Z,3.73
2022-10-10T11:07:13.716Z,3.60
2022-10-10T11:09:56.117Z,3.30
2022-10-10T11:12:35.115Z,3.60
2022-10-10T11:15:04.407Z,3.50
2022-10-10T11:17:37.345Z,3.90
2022-10-10T11:20:08.455Z,3.43
2022-10-10T11:22:37.780Z,3.33
2022-10-10T11:25:08.326Z,3.83
2022-10-10T11:27:39.696Z,3.53
2022-10-10T11:30:15.950Z,3.13
2022-10-10T11:32:48.619Z,3.77
2022-10-10T11:35:27.381Z,4.00
2022-10-10T11:37:58.801Z,3.63
2022-10-10T11:40:38.099Z,3.70
2022-10-10T11:43:07.348Z,3.70
2022-10-10T11:45:36.782Z,4.30
2022-10-10T11:48:13.745Z,5.03
2022-10-10T11:50:43.987Z,4.57
2022-10-10T11:53:17.041Z,3.80
2022-10-10T11:55:46.622Z,3.53
2022-10-10T11:58:33.538Z,4.03
2022-10-10T12:01:04.718Z,4.63
2022-10-10T12:03:32.986Z,3.80
2022-10-10T12:06:05.182Z,3.40
2022-10-10T12:08:36.110Z,4.07
2022-10-10T12:11:08.808Z,3.87
2022-10-10T12:13:38.137Z,4.10
2022-10-10T12:16:08.134Z,3.53
2022-10-10T12:18:41.086Z,4.20
2022-10-10T12:21:11.411Z,3.77
2022-10-10T12:23:41.191Z,4.10
2022-10-10T12:26:14.414Z,3.97
2022-10-10T12:29:01.336Z,4.77
2022-10-10T12:31:31.083Z,4.00
2022-10-10T12:34:04.303Z,4.40
2022-10-10T12:37:21.485Z,4.10
2022-10-10T12:40:04.286Z,3.80
2022-10-10T12:42:33.167Z,4.17
2022-10-10T12:45:01.275Z,4.10
2022-10-10T12:48:03.867Z,3.87
2022-10-10T12:50:32.622Z,3.80
2022-10-10T12:53:02.761Z,3.80
2022-10-10T12:55:32.403Z,4.47
2022-10-10T12:58:02.048Z,4.40
2022-10-10T13:00:37.406Z,4.50
2022-10-10T13:03:10.778Z,4.67
2022-10-10T13:05:40.695Z,4.50
2022-10-10T13:08:13.361Z,3.90
2022-10-10T13:10:41.456Z,4.30
2022-10-10T13:13:17.778Z,4.03
2022-10-10T13:15:52.491Z,3.87
2022-10-10T13:18:34.640Z,4.80
2022-10-10T13:21:03.437Z,4.37
2022-10-10T13:23:33.035Z,4.53
2022-10-10T13:26:01.086Z,3.83
2022-10-10T13:28:29.208Z,3.93
2022-10-10T13:30:57.315Z,4.30
2022-10-10T13:33:29.665Z,4.30
2022-10-10T13:35:57.698Z,4.03
2022-10-10T13:38:25.909Z,3.60
2022-10-10T13:40:55.430Z,4.37
2022-10-10T13:43:24.703Z,4.30
2022-10-10T13:45:57.497Z,4.80
2022-10-10T13:48:29.745Z,3.83
2022-10-10T13:51:03.409Z,4.10
2022-10-10T13:53:48.717Z,4.03
2022-10-10T13:56:21.379Z,4.00
2022-10-10T13:58:50.775Z,4.00
2022-10-10T14:01:37.724Z,3.93
2022-10-10T14:04:16.603Z,4.23
2022-10-10T14:06:51.861Z,4.23
2022-10-10T14:09:24.017Z,4.53
2022-10-10T14:11:53.747Z,3.93
2022-10-10T14:14:22.860Z,4.30
2022-10-10T14:16:59.976Z,4.17
2022-10-10T14:19:28.017Z,4.20
2022-10-10T14:21:56.171Z,3.90
2022-10-10T14:24:25.310Z,3.53
2022-10-10T14:26:54.874Z,3.90
2022-10-10T14:29:23.103Z,3.63
2022-10-10T14:31:51.173Z,3.63
2022-10-10T14:34:19.236Z,3.77
2022-10-10T14:36:48.800Z,3.80
2022-10-10T14:39:17.048Z,3.93
2022-10-10T14:41:45.345Z,4.07
2022-10-10T14:44:14.787Z,4.03
2022-10-10T14:46:42.936Z,3.90
2022-10-10T14:49:16.476Z,4.10
2022-10-10T14:51:44.655Z,3.83
2022-10-10T14:54:14.023Z,3.93
2022-10-10T14:57:06.611Z,3.43
2022-10-10T14:59:46.450Z,3.93
2022-10-10T15:02:19.081Z,3.60
2022-10-10T15:04:47.245Z,3.43
2022-10-10T15:07:15.887Z,3.73
2022-10-10T15:10:09.660Z,3.20
2022-10-10T15:12:32.918Z,3.33
2022-10-10T15:15:02.393Z,3.13
2022-10-10T15:17:33.744Z,5.57
2022-10-10T15:20:01.952Z,3.90
2022-10-10T15:22:30.173Z,3.20
2022-10-10T15:24:58.203Z,3.00
2022-10-10T15:27:28.047Z,3.17
2022-10-10T15:29:56.140Z,3.30
2022-10-10T15:32:25.664Z,3.80
2022-10-10T15:34:53.709Z,3.43
2022-10-10T15:37:21.960Z,3.10
2022-10-10T15:39:50.026Z,3.60
2022-10-10T15:45:06.692Z,3.90
2022-10-10T15:47:36.204Z,5.10
2022-10-10T15:50:04.494Z,3.93
2022-10-10T15:52:32.718Z,3.70
2022-10-10T15:55:00.831Z,3.70
2022-10-10T15:57:29.000Z,4.20
2022-10-10T15:59:17.840Z,3.10
2022-10-10T15:59:57.208Z,4.30
2022-10-10T16:02:25.332Z,3.93
2022-10-10T16:04:54.781Z,4.73
2022-10-10T16:07:29.436Z,4.23
2022-10-10T16:09:59.113Z,4.40
2022-10-10T16:12:27.299Z,4.67
2022-10-10T16:14:55.552Z,4.27
2022-10-10T16:17:24.009Z,4.57
2022-10-10T16:19:52.482Z,4.20
2022-10-10T16:22:21.998Z,4.23
2022-10-10T16:25:10.358Z,4.43
2022-10-10T16:27:38.652Z,4.10
2022-10-10T16:30:07.841Z,4.50
2022-10-10T16:32:41.781Z,4.73
2022-10-10T16:35:11.078Z,5.30
2022-10-10T16:37:40.667Z,5.43
2022-10-10T16:40:09.859Z,5.30
2022-10-10T16:42:37.963Z,5.53
2022-10-10T16:45:06.959Z,5.50
2022-10-10T16:47:35.183Z,5.80
2022-10-10T16:50:03.324Z,5.30
2022-10-10T16:52:33.137Z,5.73
2022-10-10T16:55:02.970Z,8.27
2022-10-10T16:57:31.138Z,8.40
2022-10-10T16:59:59.285Z,9.23
2022-10-10T17:02:27.486Z,8.23
2022-10-10T17:04:57.401Z,8.80
2022-10-10T17:07:25.623Z,7.23
2022-10-10T17:09:53.821Z,7.17
2022-10-10T17:12:23.762Z,5.77
2022-10-10T17:14:51.872Z,5.50
2022-10-10T17:17:20.143Z,5.50
2022-10-10T17:19:49.354Z,5.67
2022-10-10T17:22:17.782Z,6.30
2022-10-10T17:24:45.856Z,6.97
2022-10-10T17:27:14.309Z,7.10
2022-10-10T17:29:43.785Z,7.43
2022-10-10T17:32:12.136Z,7.80
2022-10-10T17:34:40.243Z,7.00
2022-10-10T17:37:08.382Z,7.27
2022-10-10T17:39:36.514Z,6.87
2022-10-10T17:42:05.227Z,7.20
2022-10-10T17:44:37.838Z,7.03
2022-10-10T17:47:11.754Z,6.43
2022-10-10T17:49:44.997Z,8.10
2022-10-10T17:52:16.486Z,7.00
2022-10-10T17:54:47.226Z,7.07
2022-10-10T17:57:15.414Z,9.20
2022-10-10T17:59:43.502Z,8.03
2022-10-10T18:02:14.381Z,7.60
2022-10-10T18:04:42.575Z,6.90
2022-10-10T18:07:10.667Z,7.03
2022-10-10T18:09:38.781Z,6.77
2022-10-10T18:12:07.893Z,7.47
2022-10-10T18:14:36.071Z,4.23
2022-10-10T18:17:04.248Z,6.60
2022-10-10T18:19:34.045Z,7.37
2022-10-10T18:22:02.146Z,7.50
2022-10-10T18:24:30.393Z,7.47
2022-10-10T18:26:58.607Z,7.43
2022-10-10T18:29:26.739Z,7.43
2022-10-10T18:31:56.521Z,7.53
2022-10-10T18:34:24.649Z,7.13
2022-10-10T18:36:54.324Z,8.20
2022-10-10T18:39:22.381Z,8.30
2022-10-10T18:41:50.487Z,7.90
2022-10-10T18:44:19.503Z,7.97
2022-10-10T18:46:47.639Z,8.83
2022-10-10T18:49:15.678Z,8.30
2022-10-10T18:51:44.041Z,8.30
2022-10-10T18:54:15.443Z,9.00
2022-10-10T18:56:43.825Z,8.73
2022-10-10T18:59:13.215Z,9.37
2022-10-10T19:01:41.350Z,9.93
2022-10-10T19:04:10.377Z,9.63
2022-10-10T19:06:38.965Z,10.17
2022-10-10T19:09:07.790Z,10.07
2022-10-10T19:11:39.230Z,9.43
2022-10-10T19:14:08.267Z,10.47
2022-10-10T19:16:36.856Z,10.13
2022-10-10T19:19:04.947Z,9.97
2022-10-10T19:21:34.244Z,10.63
2022-10-10T19:24:02.367Z,11.07
2022-10-10T19:26:33.318Z,11.27
2022-10-10T19:29:06.620Z,12.07
2022-10-10T19:31:35.251Z,10.23
2022-10-10T19:34:03.311Z,11.03
2022-10-10T19:36:31.415Z,11.30
2022-10-10T19:39:00.152Z,12.43
2022-10-10T19:41:28.361Z,12.57
2022-10-10T19:43:58.045Z,13.27
2022-10-10T19:46:28.126Z,12.07
2022-10-10T19:48:57.211Z,13.30
2022-10-10T19:51:25.761Z,13.00
2022-10-10T19:53:53.865Z,12.87
2022-10-10T19:56:24.559Z,12.70
2022-10-10T19:58:53.600Z,13.37
2022-10-10T20:01:24.507Z,14.30
2022-10-10T20:03:57.742Z,14.73
2022-10-10T20:06:25.930Z,14.27
2022-10-10T20:08:54.037Z,14.50
2022-10-10T20:11:23.313Z,13.43
2022-10-10T20:13:52.095Z,13.30
2022-10-10T20:16:20.445Z,13.80
2022-10-10T20:18:48.736Z,13.40
2022-10-10T20:21:19.802Z,13.83
2022-10-10T20:23:48.104Z,14.40
2022-10-10T20:26:17.103Z,14.00
2022-10-10T20:28:45.457Z,13.37
2022-10-10T20:31:15.423Z,13.23
2022-10-10T20:33:43.863Z,13.77
2022-10-10T20:36:12.267Z,14.13
2022-10-10T20:38:41.768Z,13.50
2022-10-10T20:41:09.928Z,12.87
2022-10-10T20:43:38.860Z,13.37
2022-10-10T20:46:07.940Z,12.90
2022-10-10T20:48:36.182Z,14.00
2022-10-10T20:51:05.568Z,13.00
2022-10-10T20:53:33.820Z,14.67
2022-10-10T20:56:06.303Z,14.40
2022-10-10T20:58:35.698Z,15.00
2022-10-10T21:01:08.234Z,15.40
2022-10-10T21:03:36.495Z,16.03
2022-10-10T21:06:09.237Z,15.67
2022-10-10T21:08:37.452Z,17.07
2022-10-10T21:11:08.513Z,16.40
2022-10-10T21:13:37.432Z,16.97
2022-10-10T21:16:07.493Z,16.93
2022-10-10T21:18:35.798Z,16.73
2022-10-10T21:21:04.380Z,17.33
2022-10-10T21:23:35.805Z,15.43
2022-10-10T21:26:07.188Z,16.47
2022-10-10T21:28:35.816Z,17.20
2022-10-10T21:31:04.045Z,17.73
2022-10-10T21:33:32.148Z,17.70
2022-10-10T21:36:00.303Z,17.90
2022-10-10T21:38:28.334Z,17.23
2022-10-10T21:40:56.381Z,18.93
2022-10-10T21:43:25.852Z,19.40
2022-10-10T21:45:53.896Z,18.47
2022-10-10T21:48:22.033Z,21.20
2022-10-10T21:50:50.294Z,21.73
2022-10-10T21:53:18.326Z,24.10
2022-10-10T21:55:46.568Z,21.80
2022-10-10T21:58:14.650Z,22.80
2022-10-10T22:00:44.135Z,25.40
2022-10-10T22:03:12.286Z,24.53
2022-10-10T22:05:40.864Z,24.93
2022-10-10T22:08:09.016Z,24.03
2022-10-10T22:10:37.086Z,25.20
2022-10-10T22:13:05.367Z,24.87
2022-10-10T22:15:33.773Z,25.50
2022-10-10T22:18:03.202Z,22.90
2022-10-10T22:20:31.681Z,24.20
2022-10-10T22:22:59.804Z,23.60
2022-10-10T22:25:27.833Z,24.63
2022-10-10T22:27:57.332Z,24.90
2022-10-10T22:30:25.683Z,23.00
2022-10-10T22:32:53.735Z,23.73
2022-10-10T22:35:23.144Z,22.67
2022-10-10T22:37:51.262Z,24.47
2022-10-10T22:40:20.594Z,25.77
2022-10-10T22:42:48.631Z,26.47
2022-10-10T22:45:16.892Z,26.23
2022-10-10T22:47:44.954Z,26.80
2022-10-10T22:50:13.215Z,27.73
2022-10-10T22:52:43.189Z,24.10
2022-10-10T22:55:15.748Z,26.30
2022-10-10T22:57:46.299Z,23.23
2022-10-10T23:00:15.678Z,23.40
2022-10-10T23:02:43.822Z,21.27
2022-10-10T23:05:11.870Z,20.27
2022-10-10T23:07:39.979Z,17.70
2022-10-10T23:10:10.564Z,18.93
2022-10-10T23:12:38.890Z,16.77
2022-10-10T23:15:07.671Z,16.40
2022-10-10T23:17:36.107Z,16.20
2022-10-10T23:20:04.644Z,13.43
2022-10-10T23:22:32.785Z,14.43
2022-10-10T23:25:00.876Z,15.10
2022-10-10T23:27:30.288Z,12.87
2022-10-10T23:29:58.337Z,13.20
2022-10-10T23:32:29.402Z,13.40
2022-10-10T23:34:57.530Z,12.37
2022-10-10T23:37:25.750Z,12.70
2022-10-10T23:39:53.795Z,11.70
2022-10-10T23:42:21.836Z,13.00
2022-10-10T23:44:51.329Z,12.73
2022-10-10T23:47:19.385Z,12.17
2022-10-10T23:49:47.443Z,10.87
2022-10-10T23:52:15.895Z,11.20
2022-10-10T23:54:43.971Z,11.80
2022-10-10T23:57:12.098Z,11.53
2022-10-10T23:59:40.182Z,11.07
